Time;durP1;ratioP1;P1;durP2;ratioP2;P2;SDS_P1;SDS_P2;PMS_P1;PMS_P2;Temp;Humidity;BMP_temperature;BMP_pressure;BME280_temperature;BME280_humidity;BME280_pressure;Samples;Min_cycle;Max_cycle;Signal;HPM_P1;HPM_P2
2021/12/21 00:00:15;;;;;;;12.97;5.07;;;;;;;-0.61;100.00;101525.69;5226279;56;1136949;-74
2021/12/21 00:05:28;;;;;;;10.60;3.83;;;;;;;-0.64;100.00;101529.66;5226486;55;1138956;-77
2021/12/21 00:10:34;;;;;;;5.00;2.70;;;;;;;-0.56;100.00;101534.72;5226033;56;1138999;-77
2021/12/21 00:16:12;;;;;;;12.87;4.10;;;;;;;-0.58;100.00;101544.28;5226490;55;1136952;-76
2021/12/21 00:26:05;;;;;;;14.63;5.53;;;;;;;-0.63;100.00;101547.41;5226127;55;1137024;-77
2021/12/21 00:31:11;;;;;;;20.07;6.70;;;;;;;-0.63;100.00;101546.97;5226788;55;1136630;-77
2021/12/21 00:36:20;;;;;;;15.73;5.57;;;;;;;-0.57;100.00;101546.86;5226209;55;1136847;-77
2021/12/21 00:41:26;;;;;;;11.03;4.20;;;;;;;-0.57;100.00;101548.16;5210794;56;1141111;-73
2021/12/21 00:46:32;;;;;;;10.85;4.12;;;;;;;-0.59;100.00;101546.02;5192974;57;1140729;-77
2021/12/21 00:51:38;;;;;;;12.33;4.83;;;;;;;-0.59;100.00;101552.95;5188483;57;1141220;-75
2021/12/21 00:56:44;;;;;;;12.33;4.67;;;;;;;-0.62;100.00;101562.97;5107746;58;1141237;-77
2021/12/21 01:01:50;;;;;;;13.30;4.70;;;;;;;-0.65;100.00;101559.55;5107874;57;1140963;-76
2021/12/21 01:07:05;;;;;;;11.93;4.03;;;;;;;-0.69;100.00;101555.28;5107908;57;1141154;-77
2021/12/21 01:12:12;;;;;;;11.73;3.60;;;;;;;-0.73;100.00;101557.05;5107523;57;1141135;-74
2021/12/21 01:17:32;;;;;;;12.37;3.50;;;;;;;-0.71;100.00;101556.59;5102868;57;1141086;-74
2021/12/21 01:22:54;;;;;;;11.23;4.23;;;;;;;-0.72;100.00;101554.44;5106181;57;1141106;-76
2021/12/21 01:27:56;;;;;;;8.70;4.00;;;;;;;-0.71;100.00;101563.09;5131795;56;1140996;-76
2021/12/21 01:38:12;;;;;;;9.73;4.83;;;;;;;-0.72;100.00;101579.12;5153196;56;1139012;-77
2021/12/21 01:43:26;;;;;;;5.43;3.00;;;;;;;-0.71;100.00;101570.88;5224357;55;1138893;-74
2021/12/21 01:53:48;;;;;;;5.37;2.87;;;;;;;-0.73;100.00;101576.09;5239804;55;1139028;-74
2021/12/21 01:58:54;;;;;;;10.20;4.53;;;;;;;-0.75;100.00;101574.39;5239363;55;1139032;-76
2021/12/21 02:04:00;;;;;;;8.90;4.30;;;;;;;-0.75;100.00;101578.30;5239645;55;1141261;-75
2021/12/21 02:09:06;;;;;;;9.60;3.40;;;;;;;-0.81;100.00;101577.10;5239783;55;1139445;-74
2021/12/21 02:14:12;;;;;;;7.27;3.93;;;;;;;-0.86;100.00;101585.38;5230592;55;1139048;-74
2021/12/21 02:19:36;;;;;;;5.50;2.67;;;;;;;-0.88;100.00;101597.09;5239655;55;1139061;-76
2021/12/21 02:24:52;;;;;;;3.43;2.13;;;;;;;-0.96;100.00;101589.85;5239182;55;1139231;-76
2021/12/21 02:29:45;;;;;;;9.40;2.60;;;;;;;-1.00;100.00;101592.06;5238394;55;1139026;-74
2021/12/21 02:34:51;;;;;;;4.37;2.03;;;;;;;-1.03;100.00;101588.20;5239822;55;1139036;-76
2021/12/21 02:39:57;;;;;;;4.00;1.62;;;;;;;-1.08;100.00;101579.20;5227969;55;1139003;-72
2021/12/21 02:45:04;;;;;;;4.93;1.77;;;;;;;-1.14;99.77;101576.66;5191257;55;1139002;-75
2021/12/21 02:50:10;;;;;;;5.50;2.77;;;;;;;-1.12;99.87;101572.31;5210244;55;1134698;-75
2021/12/21 02:55:17;;;;;;;6.50;1.70;;;;;;;-1.07;100.00;101566.61;5193092;56;1134940;-75
2021/12/21 03:00:23;;;;;;;3.00;1.80;;;;;;;-1.04;99.87;101566.16;5195144;55;1136906;-72
2021/12/21 03:05:30;;;;;;;3.30;2.27;;;;;;;-1.04;99.71;101566.16;5239787;55;1134851;-74
2021/12/21 03:10:36;;;;;;;4.37;2.70;;;;;;;-1.10;99.10;101559.32;5239914;55;1134803;-75
2021/12/21 03:15:42;;;;;;;4.73;2.47;;;;;;;-1.07;99.52;101567.91;5239865;55;1134843;-75
2021/12/21 03:20:47;;;;;;;6.07;2.90;;;;;;;-0.99;99.68;101554.84;5239774;55;1134657;-75
2021/12/21 03:25:53;;;;;;;14.20;3.50;;;;;;;-1.00;98.78;101548.36;5240209;55;1134697;-75
2021/12/21 03:30:59;;;;;;;10.53;3.87;;;;;;;-1.09;98.42;101562.34;5240328;55;1136756;-75
2021/12/21 03:36:06;;;;;;;5.07;3.03;;;;;;;-1.22;97.47;101569.39;5214541;55;1136905;-73
2021/12/21 03:41:15;;;;;;;10.43;3.90;;;;;;;-1.45;96.79;101563.20;5190594;55;1134954;-74
2021/12/21 03:46:19;;;;;;;8.75;3.98;;;;;;;-1.58;97.33;101563.36;5161244;56;1137765;-74
2021/12/21 03:51:25;;;;;;;13.03;4.10;;;;;;;-1.69;96.73;101560.89;5151553;56;1134880;-72
2021/12/21 03:56:39;;;;;;;9.57;3.83;;;;;;;-1.90;96.43;101551.59;5151669;56;1136910;-75
2021/12/21 04:01:39;;;;;;;6.33;2.50;;;;;;;-2.00;96.90;101549.97;5151345;56;1134841;-74
2021/12/21 04:06:45;;;;;;;41.63;10.10;;;;;;;-2.06;96.80;101563.41;5151602;56;1134827;-75
2021/12/21 04:11:51;;;;;;;35.83;8.20;;;;;;;-2.19;97.22;101577.78;5151413;56;1139267;-76
2021/12/21 04:16:57;;;;;;;37.87;8.93;;;;;;;-2.09;98.38;101579.84;5151588;56;1135007;-73
2021/12/21 04:22:03;;;;;;;16.10;6.53;;;;;;;-1.95;98.67;101574.09;5151703;56;1134928;-75
2021/12/21 04:27:08;;;;;;;38.17;10.87;;;;;;;-1.87;98.29;101574.91;5146494;56;1139037;-76
2021/12/21 04:32:15;;;;;;;52.00;17.13;;;;;;;-1.81;98.43;101573.52;5138414;56;1141337;-73
2021/12/21 04:37:23;;;;;;;42.97;13.17;;;;;;;-1.73;98.56;101566.12;5138339;56;1141069;-73
2021/12/21 04:42:28;;;;;;;20.03;8.00;;;;;;;-1.67;98.50;101564.73;5194893;56;1141065;-73
2021/12/21 04:47:34;;;;;;;39.53;12.37;;;;;;;-1.63;98.42;101578.11;5223803;55;1138921;-73
2021/12/21 04:52:40;;;;;;;39.33;12.47;;;;;;;-1.70;97.63;101585.55;5223926;55;1141041;-75
2021/12/21 04:57:46;;;;;;;37.37;10.40;;;;;;;-1.93;96.60;101585.31;5223985;56;1141071;-74
2021/12/21 05:02:53;;;;;;;29.33;8.30;;;;;;;-1.93;98.03;101584.45;5224077;56;1141024;-72
2021/12/21 05:08:09;;;;;;;26.00;7.77;;;;;;;-1.83;98.49;101581.75;5223826;55;1139005;-73
2021/12/21 05:13:19;;;;;;;20.27;7.15;;;;;;;-1.86;97.75;101586.99;5223880;55;1139066;-75
2021/12/21 05:18:26;;;;;;;14.03;5.23;;;;;;;-2.00;97.31;101591.45;5223982;55;1139271;-73
2021/12/21 05:23:34;;;;;;;9.03;4.13;;;;;;;-2.12;97.19;101596.28;5223756;55;1139158;-76
2021/12/21 05:28:40;;;;;;;7.53;2.50;;;;;;;-2.20;97.67;101589.02;5230486;55;1136992;-76
2021/12/21 05:33:50;;;;;;;11.10;3.33;;;;;;;-2.28;97.35;101598.56;5237840;55;1136895;-77
2021/12/21 05:38:59;;;;;;;10.43;4.50;;;;;;;-2.35;97.51;101590.87;5237771;55;1138979;-74
2021/12/21 05:44:01;;;;;;;14.50;5.07;;;;;;;-2.28;98.57;101596.41;5151755;55;1139045;-72
2021/12/21 05:49:06;;;;;;;31.27;10.97;;;;;;;-2.07;99.58;101600.14;5151350;56;1138951;-76
2021/12/21 05:54:13;;;;;;;32.33;12.03;;;;;;;-1.89;99.18;101605.59;5150872;56;1141231;-73
2021/12/21 05:59:19;;;;;;;44.60;13.13;;;;;;;-1.86;98.83;101609.03;5151103;56;1140945;-72
2021/12/21 06:04:25;;;;;;;61.47;20.73;;;;;;;-1.71;99.25;101609.32;5151122;56;1141143;-75
2021/12/21 06:09:32;;;;;;;84.73;34.57;;;;;;;-1.70;98.13;101616.23;5151088;56;1141097;-76
2021/12/21 06:30:24;;;;;;;17.63;7.60;;;;;;;-1.64;98.14;101623.93;5142382;56;1141075;-75
2021/12/21 06:35:30;;;;;;;26.63;7.77;;;;;;;-1.58;98.48;101616.09;5137808;57;1139136;-73
2021/12/21 06:40:36;;;;;;;54.43;19.53;;;;;;;-1.54;98.34;101613.05;5164382;56;1139022;-75
2021/12/21 06:45:48;;;;;;;42.20;17.10;;;;;;;-1.55;97.97;101616.52;5223535;55;1141155;-73
2021/12/21 06:51:14;;;;;;;37.50;15.03;;;;;;;-1.57;97.59;101622.15;5223547;55;1141170;-72
2021/12/21 06:56:17;;;;;;;25.83;11.73;;;;;;;-1.70;96.84;101627.04;5223744;55;1139145;-73
2021/12/21 07:01:28;;;;;;;30.40;12.37;;;;;;;-1.73;97.38;101624.03;5224331;55;1139042;-76
2021/12/21 07:06:37;;;;;;;51.07;19.47;;;;;;;-1.72;97.52;101621.86;5224217;56;1139218;-76
2021/12/21 07:11:55;;;;;;;54.83;20.70;;;;;;;-1.72;97.20;101628.78;5224171;56;1139053;-74
2021/12/21 07:22:17;;;;;;;52.97;18.67;;;;;;;-1.84;96.74;101630.63;5184581;56;1139170;-73
2021/12/21 07:27:23;;;;;;;46.03;16.87;;;;;;;-1.86;96.80;101631.50;5167704;56;1139180;-74
2021/12/21 07:32:28;;;;;;;25.23;10.20;;;;;;;-1.89;96.78;101638.00;5170188;56;1139048;-74
2021/12/21 07:37:35;;;;;;;39.47;17.20;;;;;;;-1.91;96.80;101634.13;5115117;57;1137025;-74
2021/12/21 07:42:41;;;;;;;82.67;35.17;;;;;;;-1.90;97.00;101638.44;5187514;56;1136894;-76
2021/12/21 07:47:48;;;;;;;75.75;25.95;;;;;;;-1.89;96.97;101640.16;5112882;57;1141120;-76
2021/12/21 07:52:56;;;;;;;52.58;19.32;;;;;;;-1.84;97.22;101645.31;5181902;56;1141073;-73
2021/12/21 07:58:02;;;;;;;50.87;18.23;;;;;;;-1.72;97.68;101647.80;5165955;56;1141028;-75
2021/12/21 08:03:09;;;;;;;54.35;19.77;;;;;;;-1.72;96.51;101652.12;5182176;55;1141101;-76
2021/12/21 08:08:19;;;;;;;30.57;11.63;;;;;;;-1.69;97.38;101655.98;5228420;55;1141168;-75
2021/12/21 08:13:23;;;;;;;21.90;9.07;;;;;;;-1.43;98.27;101656.16;5165830;55;1141367;-74
2021/12/21 08:18:29;;;;;;;30.80;13.58;;;;;;;-1.28;97.79;101652.54;5135388;56;1139381;-75
2021/12/21 08:23:34;;;;;;;18.07;9.97;;;;;;;-0.98;99.72;101654.36;5142791;56;1141059;-75
2021/12/21 08:28:41;;;;;;;32.37;14.17;;;;;;;-0.79;98.23;101655.86;5142425;57;1139001;-75
2021/12/21 08:33:46;;;;;;;23.33;11.23;;;;;;;-0.80;96.84;101658.03;5154959;56;1141075;-76
2021/12/21 08:38:53;;;;;;;28.57;12.60;;;;;;;-0.83;96.49;101668.45;5184606;55;1141155;-75
2021/12/21 08:43:59;;;;;;;46.27;15.93;;;;;;;-0.84;96.46;101669.33;5156950;56;1141392;-76
2021/12/21 08:49:05;;;;;;;27.30;10.27;;;;;;;-0.93;95.47;101670.31;5155536;56;1141398;-76
2021/12/21 08:54:12;;;;;;;20.23;8.57;;;;;;;-1.09;95.48;101669.63;5155917;56;1141371;-76
2021/12/21 08:59:19;;;;;;;52.80;19.50;;;;;;;-1.15;95.36;101674.88;5146559;56;1138985;-76
2021/12/21 09:04:26;;;;;;;67.70;22.87;;;;;;;-1.23;95.47;101674.56;5181337;56;1140521;-76
2021/12/21 09:09:32;;;;;;;46.87;18.20;;;;;;;-1.22;96.03;101674.51;5203126;55;1140992;-76
2021/12/21 09:14:38;;;;;;;31.00;11.30;;;;;;;-1.22;96.12;101678.41;5206604;55;1141067;-75
2021/12/21 09:19:44;;;;;;;23.93;8.77;;;;;;;-1.18;96.37;101677.50;5232851;55;1141150;-76
2021/12/21 09:24:50;;;;;;;22.57;9.50;;;;;;;-1.14;96.56;101675.30;5183286;55;1138976;-76
2021/12/21 09:29:56;;;;;;;16.53;7.07;;;;;;;-1.08;96.59;101673.95;5196661;55;1139071;-76
2021/12/21 09:35:02;;;;;;;13.77;4.70;;;;;;;-1.01;96.58;101677.31;5179610;56;1138391;-74
2021/12/21 09:40:16;;;;;;;15.47;5.53;;;;;;;-0.99;96.10;101674.27;5202585;55;1139266;-75
2021/12/21 09:45:22;;;;;;;26.70;6.85;;;;;;;-0.97;96.17;101672.95;5201970;56;1139454;-76
2021/12/21 09:50:29;;;;;;;18.23;6.20;;;;;;;-0.92;96.61;101680.27;5177473;56;1139250;-77
2021/12/21 09:55:35;;;;;;;31.60;8.63;;;;;;;-0.81;96.86;101686.18;5142142;56;1139550;-74
2021/12/21 10:00:40;;;;;;;17.07;6.80;;;;;;;-0.71;97.06;101676.95;5142293;56;1139210;-74
2021/12/21 10:05:48;;;;;;;14.63;5.60;;;;;;;-0.63;96.89;101673.41;5142096;56;1139004;-76
2021/12/21 10:10:54;;;;;;;25.53;9.57;;;;;;;-0.54;96.71;101673.27;5142319;56;1139244;-75
2021/12/21 10:16:04;;;;;;;13.53;4.50;;;;;;;-0.48;96.82;101671.90;5141957;57;1138988;-76
2021/12/21 10:21:14;;;;;;;9.60;4.30;;;;;;;-0.43;96.25;101670.94;5142248;56;1139184;-75
2021/12/21 10:26:24;;;;;;;8.57;3.83;;;;;;;-0.40;96.32;101663.54;5142147;56;1136970;-76
2021/12/21 10:31:40;;;;;;;123.80;34.17;;;;;;;-0.40;94.86;101657.05;5143147;56;1136915;-77
2021/12/21 10:36:50;;;;;;;16.27;5.70;;;;;;;-0.43;95.18;101653.19;5156959;56;1141397;-76
2021/12/21 10:42:03;;;;;;;14.60;5.37;;;;;;;-0.46;94.69;101649.35;5189117;55;1136908;-74
2021/12/21 10:47:12;;;;;;;24.35;6.33;;;;;;;-0.44;95.17;101663.16;5190637;56;1137028;-77
2021/12/21 10:52:21;;;;;;;12.87;5.30;;;;;;;-0.39;95.25;101650.97;5188425;56;1136882;-74
2021/12/21 10:57:33;;;;;;;16.07;5.73;;;;;;;-0.37;95.05;101653.11;5216916;55;1136930;-74
2021/12/21 11:02:39;;;;;;;17.13;6.90;;;;;;;-0.34;95.04;101647.02;5171348;56;1136935;-74
2021/12/21 11:13:05;;;;;;;18.13;6.60;;;;;;;-0.28;95.71;101645.60;5159103;56;1136895;-76
2021/12/21 11:18:19;;;;;;;12.90;5.90;;;;;;;-0.23;95.64;101651.59;5156300;56;1136881;-74
2021/12/21 11:23:27;;;;;;;17.87;5.00;;;;;;;-0.24;94.58;101649.88;5156365;56;1134877;-74
2021/12/21 11:28:36;;;;;;;15.23;6.57;;;;;;;-0.24;94.90;101645.98;5156517;56;1139086;-78
2021/12/21 11:33:45;;;;;;;38.78;17.05;;;;;;;-0.19;95.69;101644.18;5156765;56;1139146;-73
2021/12/21 11:38:51;;;;;;;37.88;9.80;;;;;;;-0.10;95.80;101639.69;5194188;55;1140443;-76
2021/12/21 11:44:17;;;;;;;22.33;8.77;;;;;;;-0.05;95.60;101627.48;5158226;56;1139051;-76
2021/12/21 11:49:47;;;;;;;19.80;6.33;;;;;;;-0.03;95.41;101632.66;5155959;56;1139111;-77
2021/12/21 11:54:57;;;;;;;40.07;17.13;;;;;;;0.00;95.46;101623.52;5153133;56;1139507;-76
2021/12/21 12:00:19;;;;;;;21.77;7.93;;;;;;;0.06;95.42;101629.03;5146172;56;1138982;-76
2021/12/21 12:05:31;;;;;;;20.10;8.10;;;;;;;0.12;95.34;101621.14;5120521;57;1137161;-74
2021/12/21 12:10:45;;;;;;;15.37;6.13;;;;;;;0.15;95.53;101620.66;5120912;57;1137012;-75
2021/12/21 12:16:00;;;;;;;17.17;6.20;;;;;;;0.17;94.74;101627.10;5121001;57;1137135;-76
2021/12/21 12:21:30;;;;;;;12.70;4.57;;;;;;;0.15;94.46;101622.39;5131740;57;1136998;-74
2021/12/21 12:26:39;;;;;;;10.23;2.60;;;;;;;0.10;93.62;101612.50;5132055;57;1137036;-74
2021/12/21 12:31:58;;;;;;;6.37;2.93;;;;;;;0.06;92.51;101601.73;5155826;56;1136906;-74
2021/12/21 12:37:23;;;;;;;7.87;2.87;;;;;;;0.04;93.93;101606.95;5160030;56;1135001;-75
2021/12/21 12:42:32;;;;;;;12.77;3.83;;;;;;;0.09;93.61;101609.48;5182832;55;1132848;-74
2021/12/21 12:47:46;;;;;;;10.43;3.43;;;;;;;0.08;93.20;101616.87;5155929;56;1135094;-73
2021/12/21 12:53:01;;;;;;;11.07;4.40;;;;;;;0.08;93.46;101615.56;5156012;56;1135316;-75
2021/12/21 12:58:20;;;;;;;48.27;10.03;;;;;;;0.08;93.03;101613.83;5156804;56;1134872;-74
2021/12/21 13:03:36;;;;;;;9.67;3.90;;;;;;;0.05;92.53;101616.47;5179364;56;1137030;-74
2021/12/21 13:08:45;;;;;;;10.90;4.23;;;;;;;0.02;92.28;101609.16;5184447;56;1130942;-74
2021/12/21 13:13:53;;;;;;;25.17;6.53;;;;;;;0.00;92.40;101606.61;5173980;56;1132848;-73
2021/12/21 13:19:02;;;;;;;9.37;4.33;;;;;;;0.02;92.23;101610.02;5198420;56;1137226;-74
2021/12/21 13:24:19;;;;;;;10.30;3.47;;;;;;;-0.01;92.12;101614.85;5199024;56;1134925;-74
2021/12/21 13:29:30;;;;;;;10.47;3.33;;;;;;;-0.08;90.38;101613.66;5219784;55;1139036;-75
2021/12/21 13:34:39;;;;;;;11.30;3.63;;;;;;;-0.15;90.97;101615.93;5237989;55;1139029;-74
2021/12/21 13:39:49;;;;;;;5.33;3.13;;;;;;;-0.19;91.60;101611.24;5201901;56;1138987;-73
2021/12/21 13:44:59;;;;;;;62.37;23.57;;;;;;;-0.18;92.07;101622.50;5180883;56;1136881;-74
2021/12/21 13:50:23;;;;;;;14.97;5.50;;;;;;;-0.20;92.17;101626.42;5182445;56;1141074;-74
2021/12/21 13:55:37;;;;;;;38.60;14.10;;;;;;;-0.20;92.75;101629.02;5193526;56;1139329;-73
2021/12/21 14:00:51;;;;;;;19.43;7.20;;;;;;;-0.18;93.24;101627.27;5186206;56;1141024;-75
2021/12/21 14:06:08;;;;;;;229.07;87.20;;;;;;;-0.14;93.42;101630.20;5133189;56;1138991;-74
2021/12/21 14:11:06;;;;;;;242.23;136.20;;;;;;;-0.12;93.65;101631.48;5052035;56;1143512;-73
2021/12/21 14:16:18;;;;;;;31.03;19.43;;;;;;;-0.11;93.77;101628.86;4998125;59;1145372;-74
2021/12/21 14:21:31;;;;;;;174.87;42.60;;;;;;;-0.10;93.90;101628.42;4917125;59;1141506;-73
2021/12/21 14:26:42;;;;;;;;;;;;;;;-0.08;94.19;101622.32;4924666;59;1143414;-74
2021/12/21 14:32:13;;;;;;;140.67;68.07;;;;;;;-0.06;94.17;101626.20;4922929;59;974050;-74
2021/12/21 14:37:10;;;;;;;273.90;66.70;;;;;;;-0.12;94.13;101628.89;4919216;59;1141238;-73
2021/12/21 14:42:21;;;;;;;211.27;65.77;;;;;;;-0.14;94.51;101619.80;4911300;59;1143242;-74
2021/12/21 14:47:31;;;;;;;188.77;75.70;;;;;;;-0.14;94.85;101621.55;4919107;59;1143251;-74
2021/12/21 14:52:49;;;;;;;79.15;35.05;;;;;;;-0.19;95.03;101620.34;4938130;59;1140991;-74
2021/12/21 14:58:05;;;;;;;50.17;25.10;;;;;;;-0.22;95.29;101613.88;4931731;58;1139615;-73
2021/12/21 15:03:21;;;;;;;21.40;9.60;;;;;;;-0.25;95.65;101616.97;4962858;59;1139116;-75
2021/12/21 15:08:25;;;;;;;18.13;8.23;;;;;;;-0.29;95.81;101615.28;4951620;59;1136904;-74
2021/12/21 15:13:31;;;;;;;15.93;6.73;;;;;;;-0.34;96.08;101614.08;4995199;58;1136889;-74
2021/12/21 15:18:36;;;;;;;19.87;7.63;;;;;;;-0.36;96.28;101611.50;5003493;58;1136959;-75
2021/12/21 15:23:42;;;;;;;22.97;8.63;;;;;;;-0.38;96.44;101613.27;4994386;58;1137214;-73
2021/12/21 15:28:48;;;;;;;23.10;8.77;;;;;;;-0.41;96.59;101612.44;4998283;58;1137154;-75
2021/12/21 15:33:54;;;;;;;24.52;10.58;;;;;;;-0.42;96.75;101615.48;5000600;57;1136981;-74
2021/12/21 15:39:03;;;;;;;24.37;10.67;;;;;;;-0.43;96.90;101611.60;4990179;58;1139007;-75
2021/12/21 15:44:18;;;;;;;26.80;10.70;;;;;;;-0.43;97.00;101622.00;4956861;58;1136942;-73
2021/12/21 15:49:23;;;;;;;26.13;10.90;;;;;;;-0.46;97.06;101625.50;4967731;57;1136897;-73
2021/12/21 15:54:29;;;;;;;32.83;12.97;;;;;;;-0.45;97.28;101622.45;4994083;59;1141125;-74
2021/12/21 15:59:36;;;;;;;34.73;12.10;;;;;;;-0.47;97.39;101625.55;4924181;59;1141100;-73
2021/12/21 16:04:41;;;;;;;36.43;14.53;;;;;;;-0.49;97.68;101624.27;4924148;59;1141084;-74
2021/12/21 16:09:48;;;;;;;97.53;49.27;;;;;;;-0.54;97.92;101624.77;4945114;58;1141258;-74
2021/12/21 16:14:53;;;;;;;81.40;39.27;;;;;;;-0.54;98.36;101625.20;4961946;59;1141263;-74
2021/12/21 16:19:59;;;;;;;35.48;14.83;;;;;;;-0.51;98.59;101632.52;4987895;59;1141123;-72
2021/12/21 16:25:07;;;;;;;47.90;21.43;;;;;;;-0.48;98.58;101630.33;4987789;59;1141183;-73
2021/12/21 16:30:45;;;;;;;68.47;27.27;;;;;;;-0.50;98.66;101630.78;4987649;59;1141094;-72
2021/12/21 16:35:53;;;;;;;48.23;16.30;;;;;;;-0.50;98.75;101634.23;5044524;58;1141062;-74
2021/12/21 16:40:58;;;;;;;56.27;16.70;;;;;;;-0.52;98.90;101629.50;5048215;57;1140972;-73
2021/12/21 16:46:08;;;;;;;102.20;40.87;;;;;;;-0.53;98.97;101635.58;4985500;58;1141123;-74
2021/12/21 16:51:15;;;;;;;41.67;15.60;;;;;;;-0.50;99.30;101632.94;5010607;58;1143082;-73
2021/12/21 16:56:21;;;;;;;107.00;70.57;;;;;;;-0.45;99.17;101634.15;4990468;58;1141096;-74
2021/12/21 17:01:27;;;;;;;51.97;24.90;;;;;;;-0.49;99.14;101629.46;5015394;58;1143096;-73
2021/12/21 17:06:33;;;;;;;68.57;31.60;;;;;;;-0.47;99.20;101634.20;4988742;58;1141185;-73
2021/12/21 17:11:38;;;;;;;64.97;29.05;;;;;;;-0.45;99.25;101636.75;5007145;58;1141569;-73
2021/12/21 17:16:44;;;;;;;227.07;101.90;;;;;;;-0.43;99.37;101633.25;4991038;58;1141100;-73
2021/12/21 17:21:50;;;;;;;61.93;25.97;;;;;;;-0.34;99.71;101638.77;5021656;58;1145310;-72
2021/12/21 17:26:56;;;;;;;55.70;25.97;;;;;;;-0.35;99.09;101644.85;5058124;58;1141373;-73
2021/12/21 17:32:03;;;;;;;128.63;53.97;;;;;;;-0.38;99.14;101637.95;5033819;58;1141110;-73
2021/12/21 17:37:10;;;;;;;268.93;98.77;;;;;;;-0.31;99.62;101650.43;4998768;58;1143173;-76
2021/12/21 17:42:16;;;;;;;270.07;90.77;;;;;;;-0.25;99.60;101656.82;4976203;58;1143196;-78
2021/12/21 17:47:22;;;;;;;160.83;56.50;;;;;;;-0.20;99.61;101654.16;4958333;59;1143196;-74
2021/12/21 17:52:28;;;;;;;153.87;56.10;;;;;;;-0.16;99.30;101664.94;4970708;58;1143284;-73
2021/12/21 17:57:34;;;;;;;138.37;51.07;;;;;;;-0.16;99.25;101667.10;4985502;58;1143515;-76
2021/12/21 18:02:40;;;;;;;142.17;49.77;;;;;;;-0.16;98.94;101672.30;4978741;58;1143200;-77
2021/12/21 18:07:47;;;;;;;106.57;42.73;;;;;;;-0.20;98.90;101668.45;4973203;58;1143400;-76
2021/12/21 18:12:55;;;;;;;136.23;48.73;;;;;;;-0.17;98.97;101675.78;4960876;58;1143425;-77
2021/12/21 18:18:00;;;;;;;101.45;41.68;;;;;;;-0.16;99.02;101674.04;4969476;58;1143222;-74
2021/12/21 18:23:09;;;;;;;118.75;45.30;;;;;;;-0.16;98.80;101680.09;4979450;58;1143235;-71
2021/12/21 18:28:15;;;;;;;90.53;37.67;;;;;;;-0.20;98.49;101682.76;4972114;58;1143179;-74
2021/12/21 18:33:21;;;;;;;94.23;37.33;;;;;;;-0.22;98.52;101684.52;4977562;58;1139536;-76
2021/12/21 18:38:30;;;;;;;92.87;37.33;;;;;;;-0.26;98.43;101688.89;4977329;58;1139068;-75
2021/12/21 18:43:35;;;;;;;91.83;40.10;;;;;;;-0.27;98.44;101691.07;4974636;58;1139587;-75
2021/12/21 18:48:48;;;;;;;106.00;44.13;;;;;;;-0.43;97.26;101694.33;4983661;58;1139010;-77
2021/12/21 18:53:52;;;;;;;106.87;41.77;;;;;;;-0.56;97.21;101699.27;4974624;59;1141230;-74
2021/12/21 18:58:57;;;;;;;91.37;36.87;;;;;;;-0.55;98.15;101704.03;4963397;59;1141545;-78
2021/12/21 19:04:04;;;;;;;100.47;39.58;;;;;;;-0.52;98.45;101703.55;4963320;59;1139118;-76
2021/12/21 19:09:13;;;;;;;94.67;36.20;;;;;;;-0.52;97.86;101709.19;4896149;59;1141360;-74
2021/12/21 19:14:19;;;;;;;89.70;34.47;;;;;;;-0.54;97.94;101713.10;4863008;60;1139415;-77
2021/12/21 19:19:24;;;;;;;101.70;38.00;;;;;;;-0.69;96.71;101708.10;4863571;61;1139027;-76
2021/12/21 19:24:30;;;;;;;98.50;37.70;;;;;;;-0.86;96.45;101708.30;4858856;60;1141080;-76
2021/12/21 19:29:37;;;;;;;115.17;41.43;;;;;;;-0.99;96.54;101717.11;4852971;60;1139457;-74
2021/12/21 19:34:43;;;;;;;105.33;40.10;;;;;;;-0.97;97.39;101716.66;4852768;60;1141359;-75
2021/12/21 19:39:50;;;;;;;102.07;39.30;;;;;;;-0.94;97.53;101719.67;4863544;60;1141371;-75
2021/12/21 19:44:56;;;;;;;112.67;39.77;;;;;;;-0.95;97.23;101727.89;4880486;60;1141273;-77
2021/12/21 19:50:02;;;;;;;105.53;38.90;;;;;;;-0.93;97.28;101720.09;4892508;60;1141164;-75
2021/12/21 19:55:09;;;;;;;106.00;43.47;;;;;;;-0.93;97.23;101717.49;4899721;59;1139034;-77
2021/12/21 20:00:19;;;;;;;89.07;39.80;;;;;;;-0.95;97.04;101714.05;4993314;58;1264307;-75
2021/12/21 20:05:26;;;;;;;79.47;33.73;;;;;;;-0.94;96.88;101718.37;4973493;59;1141112;-78
2021/12/21 20:10:33;;;;;;;81.75;32.03;;;;;;;-0.98;96.68;101724.02;4968047;59;1141032;-76
2021/12/21 20:15:43;;;;;;;84.20;33.97;;;;;;;-1.00;96.49;101727.08;4962115;59;1141172;-75
2021/12/21 20:20:49;;;;;;;85.67;33.73;;;;;;;-1.03;96.46;101727.09;4961923;59;1141259;-75
2021/12/21 20:25:54;;;;;;;92.40;34.53;;;;;;;-1.09;96.12;101730.64;4962168;59;1141052;-77
2021/12/21 20:31:00;;;;;;;99.57;33.97;;;;;;;-1.15;95.74;101733.28;4961907;59;1141063;-76
2021/12/21 20:36:07;;;;;;;63.73;24.97;;;;;;;-1.33;94.79;101733.45;4961919;59;1141269;-78
2021/12/21 20:41:14;;;;;;;39.67;16.83;;;;;;;-1.64;93.87;101734.16;4962068;59;1141486;-78
2021/12/21 20:46:19;;;;;;;50.90;23.55;;;;;;;-1.97;93.76;101740.45;4961897;59;1141127;-77
2021/12/21 20:51:26;;;;;;;64.90;25.40;;;;;;;-2.17;94.29;101743.62;4895475;60;1141198;-78
2021/12/21 20:56:33;;;;;;;87.10;34.17;;;;;;;-2.21;95.27;101741.48;4962598;59;1141434;-75
2021/12/21 21:01:39;;;;;;;77.03;29.97;;;;;;;-2.08;96.17;101743.98;4973276;59;1141404;-76
2021/12/21 21:06:46;;;;;;;67.67;27.97;;;;;;;-1.97;96.49;101744.34;4965752;59;1141063;-75
2021/12/21 21:11:52;;;;;;;75.87;29.37;;;;;;;-1.90;96.46;101742.58;5019313;58;1141289;-76
2021/12/21 21:16:57;;;;;;;103.23;36.97;;;;;;;-1.84;96.10;101747.30;4950992;59;1141334;-75
2021/12/21 21:22:04;;;;;;;92.33;34.33;;;;;;;-1.85;95.79;101739.09;4951829;59;1143454;-77
2021/12/21 21:27:10;;;;;;;87.33;34.70;;;;;;;-1.85;95.47;101742.98;4946512;59;1141345;-77
2021/12/21 21:32:16;;;;;;;85.83;35.00;;;;;;;-2.05;93.72;101757.80;4883799;59;1141418;-73
2021/12/21 21:37:22;;;;;;;97.40;37.80;;;;;;;-2.14;94.21;101759.98;4821052;60;1141062;-73
2021/12/21 21:42:28;;;;;;;87.83;35.67;;;;;;;-2.14;94.67;101772.95;4828335;59;1140996;-75
2021/12/21 21:47:34;;;;;;;74.37;27.75;;;;;;;-2.15;94.67;101772.55;4905914;58;1141339;-74
2021/12/21 21:52:40;;;;;;;81.87;29.63;;;;;;;-2.15;94.34;101775.14;4917159;58;1141090;-74
2021/12/21 21:57:47;;;;;;;102.67;39.10;;;;;;;-2.19;94.41;101782.50;4906112;58;1141255;-76
2021/12/21 22:02:53;;;;;;;121.60;45.43;;;;;;;-2.19;94.51;101787.69;4916091;58;1143382;-73
2021/12/21 22:07:59;;;;;;;194.47;61.20;;;;;;;-2.18;94.36;101780.77;4922345;58;1143711;-72
2021/12/21 22:13:05;;;;;;;262.53;76.77;;;;;;;-2.22;94.20;101782.51;4949305;59;1143117;-77
2021/12/21 22:18:10;;;;;;;209.83;66.47;;;;;;;-2.26;94.02;101793.75;4937819;58;1143174;-75
2021/12/21 22:23:16;;;;;;;168.30;56.90;;;;;;;-2.27;93.71;101801.53;4900077;58;1143200;-74
2021/12/21 22:28:25;;;;;;;175.40;61.07;;;;;;;-2.32;93.67;101808.48;4934766;58;1143255;-75
2021/12/21 22:33:30;;;;;;;172.73;60.53;;;;;;;-2.34;93.48;101814.09;4953204;59;1143227;-73
2021/12/21 22:38:37;;;;;;;218.67;69.27;;;;;;;-2.37;93.40;101806.33;4948122;59;1143550;-76
2021/12/21 22:43:44;;;;;;;241.80;75.27;;;;;;;-2.41;93.14;101811.09;4940723;58;1143485;-75
2021/12/21 22:48:50;;;;;;;227.83;73.67;;;;;;;-2.47;93.05;101813.72;4906838;59;1143142;-74
2021/12/21 22:53:55;;;;;;;244.47;78.17;;;;;;;-2.53;92.89;101816.75;4907060;59;1143393;-75
2021/12/21 22:59:03;;;;;;;252.90;76.37;;;;;;;-2.54;92.99;101811.56;4917737;59;1142784;-82
2021/12/21 23:04:08;;;;;;;240.67;73.93;;;;;;;-2.56;93.01;101818.05;4917715;59;1143355;-82
2021/12/21 23:09:14;;;;;;;225.73;68.93;;;;;;;-2.65;91.90;101812.91;4917647;59;1143281;-80
2021/12/21 23:14:20;;;;;;;192.90;64.13;;;;;;;-2.89;91.55;101814.23;4917585;59;1141689;-81
2021/12/21 23:19:25;;;;;;;155.93;50.17;;;;;;;-2.86;92.71;101824.59;4917572;59;1141218;-81
2021/12/21 23:24:31;;;;;;;167.33;54.50;;;;;;;-2.80;93.27;101829.77;4917675;59;1141248;-79
2021/12/21 23:29:37;;;;;;;182.13;54.97;;;;;;;-2.70;93.58;101828.01;4917478;59;1141199;-80
2021/12/21 23:34:43;;;;;;;184.23;57.57;;;;;;;-2.66;93.68;101821.53;4917545;59;1141159;-79